Exceptional Flight Instruction

Our Team

Safe Aircraft

Our Rentals

Outstanding Customer Service

Contact Us

AeroCamp 2017

AeroCamp Times (M-F 9AM-3PM)
June 19-23, 2017 – FULL
July 10-14, 2017 – FULL
July 24-28, 2017 - OPEN
$649/wk per Cadet (Roster size limited)

AeroCamp 2.0 Times (M-T 9AM-3PM)
June 26-29, 2017 – FULL
July 17-20, 2017 – FULL
$749/wk per Cadet (Roster size limited)

AeroCamp 3.0 Times (M-W – INCLUDES KITTY HAWK!)
June 12-14, 2017 – OPEN
August 7-9, 2017 – FULL
$849/wk per Cadet (Roster size limited)

AeroCamp 4.0 Times (INCLUDES OSHKOSH!!)
INQUIRE ABOUT 2018
Price TBD (Roster size limited)

About Us

Triad Aviation Academy, LLC


1030 PTI Drive
Greensboro, NC 27409

Phone: (336) 369-2804
Fax: (336) 664-6942

Weather

Available data for KGSO from the past 2 hours
GREENSBORO, NC
Metar
KGSO 281954Z VRB05KT 10SM SCT060 BKN250 27/14 A3018 RMK AO2 SLP210 T02670139

19:54 UTC

Wind: ° 5kt

Visibility: 10 SM

Sky: SCT 6000 ft

Temp: 27 deg C / 80.6 deg F

Dewpoint: 14 deg C / 57.2 deg F

Pressure: 30.18 inHg

TAF
KGSO 281720Z 2818/2918 VRB05KT P6SM SKC